Time;durP1;ratioP1;P1;durP2;ratioP2;P2;SDS_P1;SDS_P2;PMS_P1;PMS_P2;Temp;Humidity;BMP_temperature;BMP_pressure;BME280_temperature;BME280_humidity;BME280_pressure;Samples;Min_cycle;Max_cycle;Signal;HPM_P1;HPM_P2
2021/07/15 00:05:48;;;;;;;3.33;1.70;;;13.60;99.90;;;;;;20913494;28;20053;-80
2021/07/15 00:15:53;;;;;;;1.90;1.40;;;13.60;99.90;;;;;;20920033;28;20029;-78
2021/07/15 00:25:55;;;;;;;0.93;0.63;;;13.60;99.90;;;;;;20942824;28;20116;-79
2021/07/15 00:35:59;;;;;;;0.27;0.23;;;13.60;99.90;;;;;;20935222;28;20036;-80
2021/07/15 00:46:00;;;;;;;0.80;0.30;;;13.50;99.90;;;;;;20939367;28;20036;-80
2021/07/15 00:56:02;;;;;;;1.77;1.17;;;13.50;99.90;;;;;;20924216;28;20527;-80
2021/07/15 01:06:03;;;;;;;;;;;13.40;99.90;;;;;;20921794;28;20047;-80
2021/07/15 01:16:12;;;;;;;8.32;4.88;;;13.40;99.90;;;;;;20904895;28;20163;-80
2021/07/15 01:26:37;;;;;;;2.97;2.20;;;13.40;99.90;;;;;;20922942;28;20104;-80
2021/07/15 01:36:41;;;;;;;2.78;1.77;;;13.40;99.90;;;;;;20915107;28;20037;-80
2021/07/15 01:46:42;;;;;;;2.15;1.50;;;13.50;99.90;;;;;;20917340;28;20036;-80
2021/07/15 01:56:44;;;;;;;9.43;5.47;;;13.50;99.90;;;;;;20911177;28;20328;-81
2021/07/15 02:06:53;;;;;;;7.53;4.88;;;13.50;99.90;;;;;;20946356;28;20055;-79
2021/07/15 02:16:58;;;;;;;6.45;3.97;;;13.50;99.90;;;;;;20941171;28;20021;-79
2021/07/15 02:27:03;;;;;;;2.80;1.83;;;13.50;99.90;;;;;;20943648;28;20032;-79
2021/07/15 02:37:05;;;;;;;2.95;1.33;;;13.50;99.90;;;;;;20925145;28;20491;-78
2021/07/15 02:47:07;;;;;;;3.75;1.30;;;13.50;99.90;;;;;;20924956;28;20421;-80
2021/07/15 02:57:31;;;;;;;1.25;0.75;;;13.40;99.90;;;;;;20902671;28;20048;-81
2021/07/15 03:07:35;;;;;;;2.30;1.40;;;13.40;99.90;;;;;;20979503;28;20402;-81
2021/07/15 03:17:39;;;;;;;3.65;2.05;;;13.40;99.90;;;;;;21004229;28;20048;-81
2021/07/15 03:27:44;;;;;;;2.72;1.88;;;13.50;99.90;;;;;;21066720;22;20051;-75
2021/07/15 03:37:47;;;;;;;4.65;1.00;;;13.50;99.90;;;;;;21083714;28;20035;-75
2021/07/15 03:47:52;;;;;;;2.95;0.73;;;13.50;99.90;;;;;;21084438;28;20501;-75
2021/07/15 03:57:54;;;;;;;0.30;0.20;;;13.60;99.90;;;;;;21086000;28;20093;-74
2021/07/15 04:07:57;;;;;;;0.47;0.10;;;13.60;99.90;;;;;;21067483;28;20132;-75
2021/07/15 04:18:01;;;;;;;1.33;0.30;;;13.60;99.90;;;;;;21083003;28;20094;-75
2021/07/15 04:28:04;;;;;;;0.40;0.30;;;13.60;99.90;;;;;;21020928;28;20043;-75
2021/07/15 04:38:06;;;;;;;1.02;0.93;;;13.70;99.90;;;;;;21034619;28;20085;-76
2021/07/15 04:48:10;;;;;;;;;;;13.70;99.90;;;;;;21009165;28;20044;-76
2021/07/15 04:58:12;;;;;;;0.60;0.30;;;13.70;99.90;;;;;;20982895;28;19909;-76
2021/07/15 05:08:12;;;;;;;0.60;0.40;;;13.80;99.90;;;;;;21024157;28;20032;-76
2021/07/15 05:18:14;;;;;;;0.50;0.20;;;13.80;99.90;;;;;;21029771;28;20275;-76
2021/07/15 05:28:14;;;;;;;9.53;2.77;;;13.90;99.90;;;;;;21040185;28;20574;-76
2021/07/15 05:38:15;;;;;;;2.17;1.40;;;13.90;99.90;;;;;;21062187;28;20036;-76
2021/07/15 05:48:16;;;;;;;2.67;1.80;;;14.00;99.90;;;;;;21014637;28;20035;-76
2021/07/15 05:58:17;;;;;;;5.07;2.60;;;14.10;99.90;;;;;;20991313;28;20032;-76
2021/07/15 06:08:18;;;;;;;3.23;1.80;;;14.20;99.90;;;;;;20972257;28;20043;-76
2021/07/15 06:18:19;;;;;;;3.40;2.27;;;14.30;99.90;;;;;;20989015;28;20031;-76
2021/07/15 06:28:19;;;;;;;1.50;1.03;;;14.30;99.90;;;;;;20988111;28;20036;-76
2021/07/15 06:38:21;;;;;;;1.13;0.97;;;14.30;99.90;;;;;;20987689;28;20534;-76
2021/07/15 06:48:22;;;;;;;;;;;14.40;99.90;;;;;;20980905;28;20025;-76
2021/07/15 06:58:23;;;;;;;3.25;2.30;;;14.40;99.90;;;;;;21001443;28;19913;-76
2021/07/15 07:08:24;;;;;;;2.10;1.80;;;14.40;99.90;;;;;;20982828;28;20029;-76
2021/07/15 07:18:24;;;;;;;0.73;0.60;;;14.50;99.90;;;;;;20999966;28;20028;-76
2021/07/15 07:28:27;;;;;;;4.80;0.40;;;14.50;99.90;;;;;;20981138;28;20086;-76
2021/07/15 07:38:28;;;;;;;0.50;0.38;;;14.60;99.90;;;;;;20998467;28;20033;-76
2021/07/15 07:48:29;;;;;;;2.27;1.40;;;14.70;99.90;;;;;;20997642;28;20158;-76
2021/07/15 07:58:30;;;;;;;3.93;2.00;;;14.90;99.90;;;;;;21019429;28;20134;-76
2021/07/15 08:08:31;;;;;;;1.37;1.00;;;15.10;99.90;;;;;;21008816;28;20486;-76
2021/07/15 08:18:31;;;;;;;1.33;1.10;;;15.20;99.90;;;;;;20991923;28;20082;-76
2021/07/15 08:28:32;;;;;;;1.00;0.80;;;15.40;99.90;;;;;;20994872;28;20024;-76
2021/07/15 08:38:33;;;;;;;2.13;0.90;;;15.40;99.90;;;;;;20993850;28;20020;-75
2021/07/15 08:48:35;;;;;;;1.90;1.40;;;15.40;99.90;;;;;;20993235;28;20025;-76
2021/07/15 08:58:36;;;;;;;6.43;1.73;;;15.60;99.90;;;;;;20974403;28;20032;-76
2021/07/15 09:08:37;;;;;;;1.23;0.67;;;15.70;99.90;;;;;;20991270;28;20037;-76
2021/07/15 09:19:04;;;;;;;0.83;0.60;;;15.80;99.90;;;;;;20991478;28;20111;-75
2021/07/15 09:29:18;;;;;;;1.70;1.33;;;15.90;99.90;;;;;;21099900;22;20073;-78
2021/07/15 09:39:21;;;;;;;1.17;0.85;;;16.10;99.90;;;;;;21180725;28;20540;-78
2021/07/15 09:49:42;;;;;;;1.13;0.70;;;16.10;99.90;;;;;;21160022;28;20036;-77
2021/07/15 09:59:50;;;;;;;1.38;0.45;;;16.20;99.90;;;;;;21179267;28;20047;-77
2021/07/15 10:10:17;;;;;;;4.45;1.02;;;16.00;99.90;;;;;;21141351;28;20031;-80
2021/07/15 10:20:19;;;;;;;1.13;0.52;;;16.40;99.90;;;;;;21182067;28;20027;-81
2021/07/15 10:30:21;;;;;;;1.65;0.40;;;16.40;99.90;;;;;;21170294;28;20070;-81
2021/07/15 10:40:22;;;;;;;;;;;16.60;99.90;;;;;;21152862;28;20039;-77
2021/07/15 10:50:22;;;;;;;1.23;0.30;;;16.60;99.90;;;;;;21166113;28;19918;-78
2021/07/15 11:00:25;;;;;;;1.30;0.47;;;16.60;99.90;;;;;;21166848;28;20032;-79
2021/07/15 11:10:34;;;;;;;1.50;0.38;;;16.80;99.90;;;;;;21182500;28;20077;-81
2021/07/15 11:20:35;;;;;;;1.55;0.98;;;16.80;99.90;;;;;;21164432;28;20083;-81
2021/07/15 11:30:36;;;;;;;0.98;0.40;;;16.90;99.90;;;;;;21159726;28;20279;-79
2021/07/15 11:40:37;;;;;;;1.90;0.87;;;17.40;99.90;;;;;;21188875;28;20028;-81
2021/07/15 11:50:39;;;;;;;0.40;0.30;;;17.90;99.90;;;;;;21182134;28;20047;-78
2021/07/15 12:00:40;;;;;;;0.73;0.28;;;18.30;99.90;;;;;;21145703;28;20035;-80
2021/07/15 12:10:46;;;;;;;2.00;0.50;;;18.40;99.90;;;;;;21181094;28;20084;-81
2021/07/15 12:20:55;;;;;;;1.05;0.52;;;17.90;99.90;;;;;;21141896;28;20027;-83
2021/07/15 12:31:02;;;;;;;0.90;0.60;;;17.40;99.90;;;;;;21159258;28;20040;-81
2021/07/15 12:41:13;;;;;;;0.68;0.40;;;17.20;99.90;;;;;;21157897;28;20030;-82
2021/07/15 12:51:15;;;;;;;1.75;0.50;;;17.10;99.90;;;;;;21175977;28;20433;-81
2021/07/15 13:01:16;;;;;;;0.93;0.50;;;17.10;99.90;;;;;;21173322;28;20032;-82
2021/07/15 13:21:40;;;;;;;1.30;0.60;;;16.80;99.90;;;;;;21153959;28;20134;-78
2021/07/15 13:31:41;;;;;;;0.97;0.60;;;16.90;99.90;;;;;;21137585;28;20023;-77
2021/07/15 13:41:42;;;;;;;0.67;0.47;;;17.60;99.90;;;;;;21175825;28;20483;-81
2021/07/15 13:51:43;;;;;;;0.53;0.30;;;17.90;99.90;;;;;;21161408;28;20437;-79
2021/07/15 14:01:43;;;;;;;0.73;0.20;;;17.60;99.90;;;;;;21193731;28;20028;-79
2021/07/15 14:11:46;;;;;;;3.80;0.40;;;17.30;99.90;;;;;;21196290;28;20050;-79
2021/07/15 14:21:46;;;;;;;0.47;0.23;;;17.10;99.90;;;;;;21149141;28;20091;-80
2021/07/15 14:31:48;;;;;;;0.77;0.27;;;16.90;99.90;;;;;;21173106;28;20028;-79
2021/07/15 14:41:49;;;;;;;2.20;0.27;;;17.20;99.90;;;;;;21172384;28;20035;-77
2021/07/15 14:51:50;;;;;;;0.10;0.07;;;17.20;99.90;;;;;;21170005;28;20031;-79
2021/07/15 15:01:51;;;;;;;0.77;0.20;;;17.20;99.90;;;;;;21153260;28;20096;-79
2021/07/15 15:11:52;;;;;;;0.10;0.10;;;17.10;99.90;;;;;;21158456;27;20043;-81
2021/07/15 15:21:53;;;;;;;0.20;0.10;;;17.10;99.90;;;;;;21125071;28;20032;-78
2021/07/15 15:31:55;;;;;;;0.40;0.20;;;17.10;99.90;;;;;;21064525;28;20239;-81
2021/07/15 15:41:58;;;;;;;1.33;0.17;;;17.40;99.90;;;;;;21083953;28;20073;-80
2021/07/15 15:51:59;;;;;;;0.30;0.22;;;17.60;99.90;;;;;;21065624;28;20067;-82
2021/07/15 16:02:01;;;;;;;1.77;0.30;;;17.60;99.90;;;;;;21043901;28;20044;-78
2021/07/15 16:12:01;;;;;;;;;;;18.10;99.90;;;;;;21087742;28;20043;-82
2021/07/15 16:22:02;;;;;;;0.60;0.20;;;17.70;99.90;;;;;;21161225;28;19912;-79
2021/07/15 16:32:04;;;;;;;2.47;0.13;;;17.70;99.90;;;;;;21159998;28;20036;-81
2021/07/15 16:42:07;;;;;;;4.83;0.23;;;17.70;99.90;;;;;;21139864;28;20061;-79
2021/07/15 16:52:10;;;;;;;0.25;0.10;;;17.50;99.90;;;;;;21124547;28;20043;-80
2021/07/15 17:02:11;;;;;;;0.30;0.20;;;17.60;99.90;;;;;;21143860;28;20039;-78
2021/07/15 17:12:11;;;;;;;0.10;0.10;;;17.50;99.90;;;;;;21126608;28;20073;-78
2021/07/15 17:22:12;;;;;;;0.40;0.13;;;17.20;99.90;;;;;;21046462;28;20039;-80
2021/07/15 17:32:13;;;;;;;0.40;0.20;;;17.00;99.90;;;;;;21046038;28;20138;-80
2021/07/15 17:42:14;;;;;;;0.10;0.10;;;16.80;99.90;;;;;;21074442;28;20037;-80
2021/07/15 17:52:16;;;;;;;0.73;0.20;;;16.70;99.90;;;;;;21055389;28;20052;-81
2021/07/15 18:02:17;;;;;;;0.50;0.40;;;16.70;99.90;;;;;;21072154;28;20111;-80
2021/07/15 18:12:17;;;;;;;11.23;4.77;;;16.60;99.90;;;;;;21070756;28;20028;-80
2021/07/15 18:22:18;;;;;;;31.13;11.93;;;16.60;99.90;;;;;;21052804;28;20028;-80
2021/07/15 18:32:19;;;;;;;6.50;4.10;;;16.40;99.90;;;;;;21039477;28;20498;-80
2021/07/15 18:42:20;;;;;;;1.87;1.33;;;16.30;99.90;;;;;;21033429;28;20043;-81
2021/07/15 18:52:21;;;;;;;2.97;2.53;;;16.10;99.90;;;;;;21039651;28;20159;-81
2021/07/15 19:02:22;;;;;;;4.10;3.07;;;16.10;99.90;;;;;;21060539;28;20107;-79
2021/07/15 19:12:23;;;;;;;3.30;1.90;;;16.10;99.90;;;;;;21048063;28;20032;-81
2021/07/15 19:22:24;;;;;;;2.17;1.80;;;16.10;99.90;;;;;;21063303;28;20040;-80
2021/07/15 19:32:25;;;;;;;3.10;2.20;;;16.20;99.90;;;;;;21063076;28;20042;-79
2021/07/15 19:42:26;;;;;;;3.57;1.13;;;16.20;99.90;;;;;;21045716;28;20040;-80
2021/07/15 19:52:27;;;;;;;2.53;1.53;;;16.20;99.90;;;;;;21063006;28;20118;-79
2021/07/15 20:02:28;;;;;;;4.33;2.00;;;16.10;99.90;;;;;;21062482;28;20108;-81
2021/07/15 20:12:28;;;;;;;6.60;1.30;;;16.10;99.90;;;;;;21064309;28;20024;-79
2021/07/15 20:22:29;;;;;;;3.03;1.40;;;16.10;99.90;;;;;;21077915;28;20036;-78
2021/07/15 20:32:30;;;;;;;4.10;2.03;;;16.10;99.90;;;;;;21063106;28;20108;-80
2021/07/15 20:42:37;;;;;;;4.87;2.63;;;16.10;99.90;;;;;;21086690;28;20066;-79
2021/07/15 20:52:39;;;;;;;2.55;1.52;;;16.10;99.90;;;;;;21065061;28;20032;-79
2021/07/15 21:02:39;;;;;;;;;;;16.00;99.90;;;;;;21050350;28;20261;-78
2021/07/15 21:12:40;;;;;;;3.50;2.13;;;16.00;99.90;;;;;;21047133;28;19958;-79
2021/07/15 21:22:42;;;;;;;4.00;1.50;;;15.80;99.90;;;;;;21047554;28;20036;-78
2021/07/15 21:32:44;;;;;;;9.00;2.58;;;15.80;99.90;;;;;;21077406;28;20040;-79
2021/07/15 21:42:45;;;;;;;1.73;1.13;;;15.80;99.90;;;;;;21058436;28;20119;-79
2021/07/15 21:52:48;;;;;;;3.27;1.93;;;15.90;99.90;;;;;;21057326;28;20047;-79
2021/07/15 22:02:54;;;;;;;2.20;1.50;;;15.90;99.90;;;;;;21063727;28;20036;-80
2021/07/15 22:12:55;;;;;;;4.90;2.90;;;15.90;99.90;;;;;;21067067;28;20051;-82
2021/07/15 22:23:03;;;;;;;4.15;2.20;;;15.90;99.90;;;;;;21087157;28;20032;-80
2021/07/15 22:33:06;;;;;;;7.82;2.30;;;15.90;99.90;;;;;;21117990;28;20096;-82
2021/07/15 22:43:09;;;;;;;2.97;1.83;;;15.90;99.90;;;;;;21092220;28;20059;-80
2021/07/15 22:53:11;;;;;;;6.13;1.65;;;15.70;99.90;;;;;;21094448;28;20040;-82
2021/07/15 23:03:12;;;;;;;;;;;15.60;99.90;;;;;;21092346;28;20024;-82
2021/07/15 23:13:14;;;;;;;5.65;2.10;;;15.60;99.90;;;;;;21123656;28;19919;-82
2021/07/15 23:23:15;;;;;;;4.25;1.95;;;15.50;99.90;;;;;;21120355;28;20032;-80
2021/07/15 23:33:16;;;;;;;9.90;1.93;;;15.50;99.90;;;;;;21115633;28;20128;-83
2021/07/15 23:43:17;;;;;;;2.80;1.57;;;15.50;99.90;;;;;;21099747;28;20032;-82
2021/07/15 23:53:18;;;;;;;2.67;1.40;;;15.50;99.90;;;;;;21111768;28;20056;-81
